Time;durP1;ratioP1;P1;durP2;ratioP2;P2;SDS_P1;SDS_P2;PMS_P1;PMS_P2;Temp;Humidity;BMP_temperature;BMP_pressure;BME280_temperature;BME280_humidity;BME280_pressure;Samples;Min_cycle;Max_cycle;Signal;HPM_P1;HPM_P2
2022/07/22 00:02:25;;;;;;;15.13;13.63;;;18.30;97.20;;;;;;5032947;28;20254;-87
2022/07/22 00:04:58;;;;;;;15.85;14.27;;;18.30;97.20;;;;;;5030698;28;20207;-88
2022/07/22 00:07:25;;;;;;;15.52;13.90;;;18.30;97.30;;;;;;5033793;28;20205;-86
2022/07/22 00:09:58;;;;;;;15.80;14.25;;;18.20;97.70;;;;;;5034130;28;20286;-90
2022/07/22 00:12:29;;;;;;;15.18;13.60;;;18.20;97.70;;;;;;5023901;28;20650;-87
2022/07/22 00:15:04;;;;;;;16.15;14.45;;;18.10;97.60;;;;;;5028187;28;20641;-89
2022/07/22 00:17:36;;;;;;;15.35;13.85;;;18.00;97.70;;;;;;5028226;28;20653;-87
2022/07/22 00:20:05;;;;;;;16.00;14.30;;;18.10;97.70;;;;;;5029370;28;20646;-87
2022/07/22 00:22:34;;;;;;;15.15;13.60;;;18.00;97.60;;;;;;5026575;28;20191;-87
2022/07/22 00:25:01;;;;;;;15.00;13.50;;;18.00;97.60;;;;;;5028229;28;20201;-90
2022/07/22 00:27:29;;;;;;;15.82;14.13;;;18.00;97.70;;;;;;5031170;28;20198;-90
2022/07/22 00:29:56;;;;;;;16.33;13.70;;;17.90;97.90;;;;;;5022291;28;20672;-87
2022/07/22 00:32:28;;;;;;;15.98;14.05;;;17.90;98.20;;;;;;5026173;28;20260;-87
2022/07/22 00:34:54;;;;;;;16.42;14.25;;;17.90;97.90;;;;;;5031518;28;20226;-89
2022/07/22 00:37:40;;;;;;;14.55;13.05;;;17.90;97.90;;;;;;5028807;28;20202;-86
2022/07/22 00:40:11;;;;;;;15.45;13.88;;;17.80;97.90;;;;;;5027830;28;20203;-88
2022/07/22 00:42:41;;;;;;;15.23;13.73;;;17.70;98.00;;;;;;5027739;28;20221;-87
2022/07/22 00:45:16;;;;;;;15.77;13.82;;;17.60;98.20;;;;;;5034725;28;20210;-87
2022/07/22 00:47:43;;;;;;;15.95;14.20;;;17.60;98.40;;;;;;5030776;28;20198;-87
2022/07/22 00:50:10;;;;;;;15.85;14.15;;;17.60;98.50;;;;;;5026415;28;20675;-88
2022/07/22 00:52:52;;;;;;;14.93;13.43;;;17.60;98.60;;;;;;5027695;28;20195;-87
2022/07/22 00:55:22;;;;;;;15.05;13.55;;;17.50;98.70;;;;;;5017477;28;20227;-88
2022/07/22 00:57:53;;;;;;;15.57;13.38;;;17.60;98.50;;;;;;5027773;28;20537;-88
2022/07/22 01:00:23;;;;;;;13.45;12.15;;;17.60;98.20;;;;;;5023440;28;20233;-87
2022/07/22 01:02:58;;;;;;;14.38;12.98;;;17.70;97.70;;;;;;5028866;28;20195;-86
2022/07/22 01:05:28;;;;;;;15.05;13.55;;;17.80;97.60;;;;;;5034948;28;20201;-89
2022/07/22 01:07:54;;;;;;;14.65;12.88;;;17.80;97.60;;;;;;5033851;28;20210;-87
2022/07/22 01:10:22;;;;;;;14.95;13.45;;;17.80;97.60;;;;;;5031522;28;20195;-90
2022/07/22 01:13:23;;;;;;;13.70;12.27;;;17.70;97.50;;;;;;5030409;28;20286;-87
2022/07/22 01:15:52;;;;;;;14.50;12.43;;;17.70;97.50;;;;;;5035971;28;20238;-86
2022/07/22 01:18:19;;;;;;;15.30;13.70;;;17.70;97.50;;;;;;5031146;28;20285;-87
2022/07/22 01:20:59;;;;;;;14.02;12.68;;;17.70;97.50;;;;;;5033790;28;20198;-87
2022/07/22 01:23:34;;;;;;;17.35;13.38;;;17.60;97.50;;;;;;5034141;28;20203;-86
2022/07/22 01:26:01;;;;;;;14.05;12.55;;;17.70;97.50;;;;;;5035773;28;20238;-86
2022/07/22 01:28:34;;;;;;;13.73;12.32;;;17.60;97.50;;;;;;5039015;28;20273;-86
2022/07/22 01:31:01;;;;;;;16.65;13.18;;;17.60;97.50;;;;;;5030327;28;20199;-86
2022/07/22 01:33:35;;;;;;;13.68;12.38;;;17.60;97.50;;;;;;5033336;28;20225;-87
2022/07/22 01:36:03;;;;;;;14.30;12.43;;;17.60;97.30;;;;;;5033617;28;20215;-86
2022/07/22 01:38:34;;;;;;;15.10;12.50;;;17.60;97.00;;;;;;5035613;28;20229;-88
2022/07/22 01:41:10;;;;;;;13.85;12.35;;;17.50;97.40;;;;;;5026523;28;20227;-86
2022/07/22 01:43:36;;;;;;;14.77;12.75;;;17.50;97.50;;;;;;5035936;28;20260;-91
2022/07/22 01:46:10;;;;;;;14.25;12.85;;;17.40;97.50;;;;;;5027548;28;20199;-86
2022/07/22 01:48:36;;;;;;;15.65;13.02;;;17.30;97.40;;;;;;5034566;28;20671;-88
2022/07/22 01:51:17;;;;;;;14.27;12.40;;;17.20;97.40;;;;;;5028166;28;20199;-87
2022/07/22 01:53:44;;;;;;;13.88;12.30;;;17.10;97.70;;;;;;5034215;28;20650;-86
2022/07/22 01:56:11;;;;;;;15.65;12.50;;;17.10;97.90;;;;;;5031406;28;20234;-87
2022/07/22 01:58:38;;;;;;;13.10;11.88;;;17.10;97.80;;;;;;5027646;28;20191;-88
2022/07/22 02:01:10;;;;;;;13.55;11.93;;;17.10;97.90;;;;;;5031820;28;20202;-87
2022/07/22 02:03:37;;;;;;;13.35;12.05;;;17.10;97.90;;;;;;5026522;28;20203;-86
2022/07/22 02:06:04;;;;;;;13.77;12.38;;;17.20;97.40;;;;;;5024728;28;20245;-89
2022/07/22 02:08:33;;;;;;;13.75;12.32;;;17.30;97.40;;;;;;5030776;28;20235;-88
2022/07/22 02:11:00;;;;;;;13.52;12.18;;;17.20;97.40;;;;;;5026400;28;20259;-86
2022/07/22 02:13:27;;;;;;;14.13;12.57;;;17.20;97.70;;;;;;5029611;28;20203;-86
2022/07/22 02:15:54;;;;;;;13.52;12.10;;;17.10;97.40;;;;;;5035056;28;20222;-86
2022/07/22 02:18:21;;;;;;;14.82;13.27;;;17.00;97.40;;;;;;5027133;28;20214;-86
2022/07/22 02:20:52;;;;;;;14.27;12.38;;;16.90;97.80;;;;;;5032949;28;20233;-86
2022/07/22 02:23:19;;;;;;;13.90;12.45;;;16.90;97.80;;;;;;5033401;28;20289;-86
2022/07/22 02:25:47;;;;;;;13.55;11.60;;;16.90;97.70;;;;;;5024191;28;20213;-86
2022/07/22 02:28:28;;;;;;;14.13;11.88;;;16.90;97.40;;;;;;5033242;28;20434;-86
2022/07/22 02:30:58;;;;;;;13.35;12.05;;;16.90;97.40;;;;;;5033366;28;20205;-85
2022/07/22 02:33:29;;;;;;;14.48;12.95;;;16.80;97.70;;;;;;5034835;28;20698;-86
2022/07/22 02:35:56;;;;;;;14.52;13.20;;;16.70;97.90;;;;;;5038084;28;20732;-85
2022/07/22 02:38:23;;;;;;;13.73;12.25;;;16.70;98.20;;;;;;5028488;28;20285;-86
2022/07/22 02:40:59;;;;;;;13.68;11.68;;;16.70;98.10;;;;;;5035892;28;20210;-87
2022/07/22 02:43:26;;;;;;;16.02;12.77;;;16.70;98.10;;;;;;5031846;28;20191;-86
2022/07/22 02:45:53;;;;;;;13.18;11.88;;;16.70;98.10;;;;;;5028594;28;20645;-86
2022/07/22 02:48:51;;;;;;;12.95;11.70;;;16.70;98.10;;;;;;5023404;28;20282;-86
2022/07/22 02:51:18;;;;;;;13.82;12.38;;;16.60;98.10;;;;;;5033998;28;20282;-86
2022/07/22 02:53:58;;;;;;;13.75;12.32;;;16.60;98.00;;;;;;5031500;28;20217;-86
2022/07/22 02:56:29;;;;;;;14.13;12.18;;;16.60;97.90;;;;;;5031860;28;20236;-88
2022/07/22 02:59:16;;;;;;;13.77;11.70;;;16.60;97.90;;;;;;5034232;28;20202;-86
2022/07/22 03:01:42;;;;;;;13.63;12.25;;;16.70;97.80;;;;;;5037710;28;20266;-86
2022/07/22 03:04:10;;;;;;;13.35;11.95;;;16.60;97.70;;;;;;5038706;28;20203;-86
2022/07/22 03:06:37;;;;;;;13.63;12.18;;;16.60;97.80;;;;;;5033628;28;20211;-86
2022/07/22 03:09:04;;;;;;;12.70;11.50;;;16.60;97.90;;;;;;5036751;28;20297;-86
2022/07/22 03:11:32;;;;;;;15.57;12.40;;;16.60;98.00;;;;;;5038042;28;20195;-87
2022/07/22 03:13:59;;;;;;;14.00;12.57;;;16.60;98.10;;;;;;5037232;28;20289;-86
2022/07/22 03:16:28;;;;;;;13.60;12.15;;;16.60;98.10;;;;;;5040170;28;20240;-88
2022/07/22 03:18:55;;;;;;;13.93;12.23;;;16.60;97.90;;;;;;5033749;28;20281;-86
2022/07/22 03:21:28;;;;;;;12.88;11.63;;;16.60;97.90;;;;;;5039705;28;20202;-88
2022/07/22 03:24:04;;;;;;;13.77;12.40;;;16.60;98.00;;;;;;5036051;28;20217;-87
2022/07/22 03:26:33;;;;;;;13.60;12.27;;;16.60;98.00;;;;;;5024678;28;20282;-90
2022/07/22 03:29:04;;;;;;;14.07;12.68;;;16.60;98.00;;;;;;5035569;28;20201;-86
2022/07/22 03:31:31;;;;;;;13.48;12.18;;;16.60;98.10;;;;;;5036334;28;20199;-86
2022/07/22 03:33:58;;;;;;;14.25;12.48;;;16.50;98.10;;;;;;5035637;28;20568;-88
2022/07/22 03:36:25;;;;;;;13.45;12.02;;;16.50;98.10;;;;;;5037638;28;20223;-86
2022/07/22 03:39:04;;;;;;;13.80;12.43;;;16.50;98.10;;;;;;5038342;28;20198;-86
2022/07/22 03:41:41;;;;;;;13.55;12.13;;;16.60;97.90;;;;;;5034076;28;20198;-87
2022/07/22 03:44:10;;;;;;;14.13;12.18;;;16.60;97.90;;;;;;5039787;28;20208;-86
2022/07/22 03:46:36;;;;;;;13.43;12.00;;;16.50;97.90;;;;;;5040536;28;20195;-86
2022/07/22 03:49:10;;;;;;;12.88;11.48;;;16.60;97.90;;;;;;5040363;28;20208;-86
2022/07/22 03:51:37;;;;;;;13.23;11.80;;;16.60;97.80;;;;;;5038028;28;20205;-88
2022/07/22 03:54:10;;;;;;;12.68;11.38;;;16.60;97.90;;;;;;5034362;28;20195;-86
2022/07/22 03:56:37;;;;;;;13.73;12.32;;;16.70;97.90;;;;;;5035008;28;20211;-86
2022/07/22 03:59:05;;;;;;;13.93;12.63;;;16.70;97.30;;;;;;5035708;28;20199;-85
2022/07/22 04:01:40;;;;;;;14.70;12.85;;;16.70;97.40;;;;;;5038465;28;20711;-86
2022/07/22 04:04:07;;;;;;;13.00;11.68;;;16.60;97.30;;;;;;5032466;28;20284;-86
2022/07/22 04:06:34;;;;;;;14.02;12.48;;;16.50;97.70;;;;;;5034095;28;20199;-86
2022/07/22 04:09:01;;;;;;;13.75;12.30;;;16.50;98.00;;;;;;5034250;28;20203;-86
2022/07/22 04:11:46;;;;;;;14.48;12.88;;;16.50;98.00;;;;;;5040053;28;20281;-86
2022/07/22 04:14:14;;;;;;;14.48;12.10;;;16.50;98.30;;;;;;5033643;28;20202;-86
2022/07/22 04:16:46;;;;;;;13.52;12.15;;;16.50;98.30;;;;;;5030310;28;20677;-87
2022/07/22 04:19:13;;;;;;;14.05;12.55;;;16.50;98.30;;;;;;5025783;28;20679;-86
2022/07/22 04:21:40;;;;;;;13.75;12.35;;;16.60;98.20;;;;;;5022631;28;20199;-86
2022/07/22 04:24:08;;;;;;;15.18;12.75;;;16.60;98.00;;;;;;5037399;28;20266;-85
2022/07/22 04:26:36;;;;;;;12.85;11.65;;;16.60;98.10;;;;;;5037594;28;20190;-86
2022/07/22 04:29:03;;;;;;;14.00;12.50;;;16.70;97.90;;;;;;5036360;28;20202;-86
2022/07/22 04:31:32;;;;;;;13.52;12.10;;;16.70;97.80;;;;;;5029343;28;20207;-86
2022/07/22 04:34:04;;;;;;;16.05;12.95;;;16.80;97.90;;;;;;5027080;28;20199;-87
2022/07/22 04:36:31;;;;;;;15.43;12.30;;;16.90;97.90;;;;;;5032735;28;20705;-86
2022/07/22 04:38:58;;;;;;;14.85;12.23;;;17.10;97.70;;;;;;5040901;28;20198;-86
2022/07/22 04:41:25;;;;;;;14.02;12.63;;;17.10;97.40;;;;;;5033340;28;20198;-91
2022/07/22 04:43:52;;;;;;;13.40;12.00;;;17.20;97.40;;;;;;5031488;28;20212;-87
2022/07/22 04:46:22;;;;;;;13.95;12.55;;;17.20;97.40;;;;;;5041349;28;20266;-88
2022/07/22 04:55:38;;;;;;;12.57;11.32;;;17.50;97.50;;;;;;5042605;28;20281;-87
2022/07/22 04:58:10;;;;;;;13.13;11.73;;;17.50;97.50;;;;;;5031282;28;20563;-88
2022/07/22 05:00:37;;;;;;;13.93;12.52;;;17.70;97.50;;;;;;5022983;28;20191;-87
2022/07/22 05:06:29;;;;;;;13.02;11.57;;;17.90;97.00;;;;;;5040958;28;20165;-87
2022/07/22 05:12:19;;;;;;;14.02;11.52;;;18.20;96.20;;;;;;5024128;28;20310;-89
2022/07/22 05:18:08;;;;;;;13.05;11.75;;;18.40;95.70;;;;;;5035674;28;20206;-88
2022/07/22 05:20:40;;;;;;;12.45;11.23;;;18.70;95.00;;;;;;5034736;28;20193;-89
2022/07/22 05:30:23;;;;;;;12.55;11.35;;;18.90;94.40;;;;;;5035033;28;20213;-89
2022/07/22 05:32:58;;;;;;;12.65;11.40;;;19.00;93.90;;;;;;5020714;28;20298;-89
2022/07/22 05:39:22;;;;;;;13.15;11.43;;;19.40;92.50;;;;;;5015656;28;20179;-88
2022/07/22 05:52:10;;;;;;;12.48;10.93;;;20.80;85.50;;;;;;5015656;28;20601;-85
2022/07/22 05:58:10;;;;;;;14.02;11.40;;;21.00;82.80;;;;;;5031821;28;20236;-85
2022/07/22 06:00:37;;;;;;;12.65;11.25;;;21.40;81.80;;;;;;5024480;28;20200;-84
2022/07/22 06:03:04;;;;;;;12.57;11.27;;;21.80;79.20;;;;;;5017682;28;20562;-84
2022/07/22 06:05:35;;;;;;;13.35;10.85;;;21.80;78.10;;;;;;5025654;28;20629;-85
2022/07/22 06:08:04;;;;;;;12.70;11.40;;;21.70;78.30;;;;;;5024931;28;20214;-84
2022/07/22 06:10:31;;;;;;;13.25;11.10;;;21.60;79.10;;;;;;5023048;28;20199;-84
2022/07/22 06:12:58;;;;;;;13.38;10.75;;;21.50;78.50;;;;;;5024989;28;20253;-86
2022/07/22 06:15:25;;;;;;;12.68;10.38;;;21.30;76.70;;;;;;5029534;28;20692;-84
2022/07/22 06:17:52;;;;;;;13.10;11.10;;;21.10;76.90;;;;;;5029733;28;20568;-85
2022/07/22 06:20:19;;;;;;;13.18;11.32;;;21.10;79.10;;;;;;5023130;28;20202;-83
2022/07/22 06:22:46;;;;;;;14.27;12.13;;;21.00;80.40;;;;;;5037303;28;20535;-86
2022/07/22 06:25:14;;;;;;;13.88;12.38;;;20.90;81.10;;;;;;5028577;28;20487;-82
2022/07/22 06:27:41;;;;;;;15.80;11.85;;;20.90;81.50;;;;;;5027449;28;20211;-82
2022/07/22 06:30:09;;;;;;;11.27;10.27;;;20.90;81.50;;;;;;5025382;28;20213;-81
2022/07/22 06:32:36;;;;;;;14.25;12.55;;;21.00;81.50;;;;;;5035021;28;20218;-84
2022/07/22 06:35:03;;;;;;;14.02;11.75;;;21.10;81.60;;;;;;5040116;28;20203;-83
2022/07/22 06:37:30;;;;;;;12.75;11.45;;;21.20;81.70;;;;;;5030267;28;20218;-87
2022/07/22 06:39:57;;;;;;;13.00;11.68;;;21.30;81.10;;;;;;5034789;28;20641;-84
2022/07/22 06:42:25;;;;;;;14.43;11.60;;;21.40;80.50;;;;;;5030628;28;20198;-85
2022/07/22 06:44:52;;;;;;;13.00;11.70;;;21.60;77.20;;;;;;5028593;28;20756;-85
2022/07/22 06:47:28;;;;;;;14.60;10.90;;;21.80;75.60;;;;;;5028092;28;20225;-84
2022/07/22 06:49:55;;;;;;;12.82;11.15;;;21.90;75.20;;;;;;5030181;28;20341;-83
2022/07/22 06:52:21;;;;;;;14.00;11.57;;;22.00;75.90;;;;;;5032215;28;20205;-84
2022/07/22 06:54:49;;;;;;;14.10;11.95;;;21.90;75.00;;;;;;5037387;28;20204;-82
2022/07/22 06:57:15;;;;;;;12.52;11.20;;;21.90;76.10;;;;;;5035200;28;20206;-84
2022/07/22 06:59:43;;;;;;;12.80;11.50;;;22.10;72.40;;;;;;5025381;28;20195;-84
2022/07/22 07:02:10;;;;;;;14.77;11.48;;;22.20;73.30;;;;;;5029953;28;20207;-85
2022/07/22 07:04:37;;;;;;;13.23;11.23;;;22.30;73.20;;;;;;5031175;28;20207;-84
2022/07/22 07:07:04;;;;;;;14.32;10.82;;;22.50;71.20;;;;;;5033434;28;20205;-85
2022/07/22 07:09:31;;;;;;;12.68;11.20;;;22.50;66.60;;;;;;5035670;28;20226;-84
2022/07/22 07:11:58;;;;;;;13.45;11.30;;;22.60;67.20;;;;;;5030814;28;20658;-83
2022/07/22 07:14:24;;;;;;;11.77;10.52;;;22.70;68.10;;;;;;5030131;28;20206;-85
2022/07/22 07:16:53;;;;;;;14.63;10.70;;;22.80;62.90;;;;;;5036447;28;20575;-87
2022/07/22 07:19:20;;;;;;;12.55;10.85;;;22.80;64.40;;;;;;5029585;28;20673;-84
2022/07/22 07:21:47;;;;;;;12.88;10.48;;;22.90;61.20;;;;;;5029544;28;20658;-85
2022/07/22 07:24:14;;;;;;;13.07;11.27;;;23.00;58.60;;;;;;5024654;28;20203;-84
2022/07/22 07:26:40;;;;;;;12.13;10.80;;;23.20;58.80;;;;;;5022965;28;20191;-84
2022/07/22 07:29:07;;;;;;;12.55;11.13;;;23.20;64.00;;;;;;5030619;28;20195;-85
2022/07/22 07:31:40;;;;;;;12.63;11.32;;;23.20;58.90;;;;;;5031944;28;20214;-84
2022/07/22 07:34:08;;;;;;;13.32;10.75;;;23.10;58.70;;;;;;5022369;28;20237;-84
2022/07/22 07:36:35;;;;;;;12.48;9.85;;;23.30;58.20;;;;;;5032134;28;20198;-82
2022/07/22 07:39:02;;;;;;;11.77;10.18;;;23.40;58.40;;;;;;5033169;28;20200;-83
2022/07/22 07:41:29;;;;;;;10.85;9.75;;;23.70;54.00;;;;;;5026822;28;20473;-84
2022/07/22 07:43:56;;;;;;;15.10;10.68;;;23.80;56.00;;;;;;5029997;28;20667;-84
2022/07/22 07:46:22;;;;;;;12.00;10.30;;;23.80;51.70;;;;;;5031928;28;20203;-84
2022/07/22 07:48:49;;;;;;;14.65;10.57;;;23.80;50.70;;;;;;5024342;28;20203;-87
2022/07/22 07:51:17;;;;;;;17.25;10.23;;;23.90;52.90;;;;;;5028649;28;20191;-84
2022/07/22 07:53:44;;;;;;;10.57;9.55;;;23.70;48.40;;;;;;5034163;28;20534;-88
2022/07/22 07:56:12;;;;;;;11.25;9.65;;;23.90;49.20;;;;;;5029309;28;20198;-88
2022/07/22 07:58:39;;;;;;;14.55;9.75;;;24.10;49.80;;;;;;5028067;28;20291;-86
2022/07/22 08:01:06;;;;;;;11.02;9.68;;;24.10;45.60;;;;;;5028072;28;20202;-83
2022/07/22 08:03:33;;;;;;;10.95;9.85;;;24.00;46.60;;;;;;5030244;28;20201;-85
2022/07/22 08:06:00;;;;;;;13.68;10.63;;;24.20;46.20;;;;;;5027529;28;20202;-86
2022/07/22 08:08:28;;;;;;;11.77;10.18;;;24.40;48.00;;;;;;5029975;28;20198;-87
2022/07/22 08:10:55;;;;;;;12.50;9.35;;;24.50;47.20;;;;;;5030157;28;20195;-86
2022/07/22 08:13:22;;;;;;;11.40;9.00;;;24.60;40.20;;;;;;5030061;28;20202;-86
2022/07/22 08:15:49;;;;;;;14.80;9.68;;;24.60;40.10;;;;;;5031802;28;20202;-88
2022/07/22 08:18:16;;;;;;;12.13;9.98;;;24.70;41.40;;;;;;5033976;28;20584;-84
2022/07/22 08:20:43;;;;;;;11.05;9.35;;;24.70;40.80;;;;;;5032963;28;20196;-82
2022/07/22 08:23:10;;;;;;;16.75;9.68;;;24.90;40.70;;;;;;5036842;28;20199;-86
2022/07/22 08:25:38;;;;;;;13.15;10.00;;;25.00;40.60;;;;;;5037034;28;20289;-83
2022/07/22 08:28:05;;;;;;;11.30;10.20;;;25.30;38.30;;;;;;5035421;28;20211;-81
2022/07/22 08:30:32;;;;;;;11.55;10.45;;;25.30;36.40;;;;;;5026134;28;20244;-83
2022/07/22 08:32:59;;;;;;;11.63;10.43;;;25.50;34.50;;;;;;5026395;28;20226;-82
2022/07/22 08:35:26;;;;;;;11.40;10.30;;;26.10;30.20;;;;;;5032905;28;20191;-82
2022/07/22 08:37:53;;;;;;;10.57;9.55;;;26.40;29.30;;;;;;5026040;28;20222;-86
2022/07/22 08:40:20;;;;;;;10.82;9.82;;;27.30;25.90;;;;;;5026864;28;20673;-85
2022/07/22 08:42:53;;;;;;;9.85;8.85;;;27.50;26.00;;;;;;5026598;28;20195;-84
2022/07/22 08:45:21;;;;;;;12.90;9.52;;;27.60;26.00;;;;;;5023717;28;20201;-84
2022/07/22 08:47:49;;;;;;;11.10;9.80;;;27.70;26.30;;;;;;5029160;28;20214;-85
2022/07/22 08:50:16;;;;;;;11.55;9.23;;;27.60;24.80;;;;;;5022820;28;20194;-85
2022/07/22 08:52:43;;;;;;;11.40;9.13;;;27.50;26.00;;;;;;5030206;28;20205;-87
2022/07/22 08:55:11;;;;;;;11.77;8.20;;;28.20;22.50;;;;;;5036052;28;20212;-89
2022/07/22 08:57:38;;;;;;;10.93;8.18;;;29.00;21.40;;;;;;5029188;28;20222;-87
2022/07/22 09:00:11;;;;;;;9.77;8.48;;;30.00;19.10;;;;;;5025036;28;20204;-86
2022/07/22 09:02:40;;;;;;;9.73;8.73;;;31.70;15.50;;;;;;5021531;28;20287;-87
2022/07/22 09:05:09;;;;;;;9.85;7.82;;;32.20;14.50;;;;;;5023944;28;20681;-87
2022/07/22 09:07:38;;;;;;;8.88;7.68;;;32.60;13.50;;;;;;5031842;28;20202;-86
2022/07/22 09:10:07;;;;;;;9.35;8.25;;;34.10;12.90;;;;;;5032596;28;20666;-88
2022/07/22 09:12:34;;;;;;;9.30;8.02;;;35.50;9.70;;;;;;5028855;28;20197;-88
2022/07/22 09:15:06;;;;;;;8.90;8.00;;;36.10;8.30;;;;;;5028464;28;20289;-88
2022/07/22 09:17:35;;;;;;;10.15;8.55;;;36.20;8.20;;;;;;5028791;28;20233;-88
2022/07/22 09:20:05;;;;;;;11.18;8.23;;;35.80;7.80;;;;;;5028957;28;20195;-89
2022/07/22 09:22:38;;;;;;;9.80;8.65;;;35.00;8.80;;;;;;5016651;28;20195;-89
2022/07/22 09:25:29;;;;;;;9.90;9.10;;;35.80;8.60;;;;;;5022012;28;20289;-90
2022/07/22 09:28:16;;;;;;;9.68;8.88;;;35.70;8.80;;;;;;5028405;28;20204;-89
2022/07/22 09:31:05;;;;;;;8.75;8.13;;;36.30;6.30;;;;;;5023131;28;20217;-90
2022/07/22 09:34:04;;;;;;;9.65;8.75;;;36.10;8.20;;;;;;5020628;28;20222;-90
2022/07/22 09:36:55;;;;;;;8.60;7.90;;;35.70;7.20;;;;;;5027855;28;20202;-89
2022/07/22 09:39:29;;;;;;;8.57;7.80;;;37.10;5.00;;;;;;5024788;28;20210;-89
2022/07/22 09:42:07;;;;;;;8.60;7.90;;;36.80;4.70;;;;;;5026447;28;20216;-89
2022/07/22 09:44:33;;;;;;;9.30;8.35;;;37.20;4.10;;;;;;5026550;28;20664;-88
2022/07/22 09:47:29;;;;;;;11.68;7.82;;;36.50;6.00;;;;;;5036683;28;21854;-90
2022/07/22 09:53:24;;;;;;;8.60;7.88;;;35.90;5.90;;;;;;5035020;28;20162;-90
2022/07/22 09:55:52;;;;;;;9.93;8.05;;;35.70;6.30;;;;;;5027758;28;20204;-88
2022/07/22 10:05:05;;;;;;;8.98;8.15;;;35.30;7.00;;;;;;5024772;28;20182;-90
2022/07/22 10:07:32;;;;;;;9.15;8.48;;;36.00;5.90;;;;;;5028120;28;20190;-88
2022/07/22 10:10:11;;;;;;;9.18;8.38;;;36.40;5.10;;;;;;5032560;28;20198;-84
2022/07/22 10:12:41;;;;;;;9.55;8.65;;;35.70;6.70;;;;;;5024812;28;21912;-88
2022/07/22 10:15:09;;;;;;;10.25;9.35;;;35.40;7.40;;;;;;5030028;28;20198;-87
2022/07/22 10:17:37;;;;;;;9.35;8.43;;;35.40;7.60;;;;;;5038140;28;20200;-85
2022/07/22 10:23:29;;;;;;;8.77;8.18;;;36.30;5.50;;;;;;5047158;28;20185;-86
2022/07/22 10:26:00;;;;;;;9.02;8.23;;;36.40;6.00;;;;;;5046650;28;20196;-86
2022/07/22 10:28:28;;;;;;;9.75;8.90;;;35.60;7.80;;;;;;5033879;28;20654;-85
2022/07/22 10:31:17;;;;;;;9.40;8.48;;;35.10;7.90;;;;;;5024916;28;20560;-86
2022/07/22 10:33:45;;;;;;;9.40;8.50;;;34.90;6.70;;;;;;5021139;28;20746;-84
2022/07/22 10:36:13;;;;;;;9.65;8.80;;;34.90;7.30;;;;;;5018167;28;20205;-86
2022/07/22 10:39:04;;;;;;;9.25;8.45;;;35.30;7.80;;;;;;5023390;28;20240;-86
2022/07/22 10:41:35;;;;;;;10.38;8.60;;;35.40;9.40;;;;;;5025668;28;20194;-87
2022/07/22 10:44:05;;;;;;;10.73;9.55;;;36.10;6.50;;;;;;5025010;28;20213;-85
2022/07/22 10:46:52;;;;;;;10.10;8.07;;;35.60;7.60;;;;;;5022912;28;20281;-87
2022/07/22 10:49:20;;;;;;;8.95;8.18;;;35.30;7.50;;;;;;5020990;28;20249;-86
2022/07/22 10:55:58;;;;;;;8.25;7.55;;;36.20;5.80;;;;;;5022748;28;20205;-88
2022/07/22 10:58:52;;;;;;;8.68;7.95;;;36.10;6.70;;;;;;5030548;28;20690;-89
2022/07/22 11:01:25;;;;;;;8.95;8.02;;;34.80;7.80;;;;;;5028481;28;20210;-90
2022/07/22 11:03:53;;;;;;;8.48;7.30;;;35.00;8.90;;;;;;5016755;28;20194;-89
2022/07/22 11:06:25;;;;;;;7.85;7.00;;;34.80;10.20;;;;;;5022232;28;20557;-88
2022/07/22 11:08:54;;;;;;;8.07;7.47;;;34.70;8.70;;;;;;5024521;28;20677;-89
2022/07/22 11:11:45;;;;;;;8.25;7.50;;;34.40;8.90;;;;;;5022684;28;20199;-89
2022/07/22 11:14:20;;;;;;;10.13;7.45;;;34.40;11.10;;;;;;5023453;28;20201;-83
2022/07/22 11:16:48;;;;;;;9.25;7.60;;;34.40;8.20;;;;;;5024158;28;20193;-87
2022/07/22 11:19:20;;;;;;;8.68;7.82;;;34.10;9.00;;;;;;5025552;28;20222;-87
2022/07/22 11:21:50;;;;;;;8.00;7.00;;;33.30;10.80;;;;;;5026311;28;20198;-87
2022/07/22 11:24:17;;;;;;;9.45;7.90;;;32.70;11.70;;;;;;5031694;28;20202;-88
2022/07/22 11:26:48;;;;;;;8.77;7.40;;;32.60;10.80;;;;;;5043749;28;20202;-87
2022/07/22 11:29:19;;;;;;;15.73;10.15;;;32.60;12.10;;;;;;5031844;28;20198;-88
2022/07/22 11:31:46;;;;;;;10.10;7.72;;;32.30;13.00;;;;;;5027959;28;20284;-88
2022/07/22 11:34:16;;;;;;;8.38;7.55;;;31.80;13.60;;;;;;5026480;28;20202;-87
2022/07/22 11:36:45;;;;;;;8.30;7.45;;;31.80;12.30;;;;;;5026039;28;20205;-86
2022/07/22 11:39:13;;;;;;;7.68;6.97;;;31.50;13.30;;;;;;5023202;28;20227;-87
2022/07/22 11:41:41;;;;;;;9.85;7.40;;;31.40;13.60;;;;;;5021489;28;20202;-86
2022/07/22 11:44:09;;;;;;;8.82;7.30;;;31.30;13.80;;;;;;5025221;28;20632;-87
2022/07/22 11:46:38;;;;;;;9.02;7.60;;;31.30;13.80;;;;;;5028477;28;20204;-88
2022/07/22 11:49:05;;;;;;;7.32;6.60;;;31.60;13.40;;;;;;5028969;28;20198;-86
2022/07/22 11:51:34;;;;;;;8.73;6.93;;;31.60;13.30;;;;;;5029858;28;20198;-85
2022/07/22 11:54:01;;;;;;;8.05;7.20;;;31.40;13.60;;;;;;5028450;28;20212;-86
2022/07/22 11:56:28;;;;;;;8.27;7.20;;;31.20;13.60;;;;;;5023776;28;20191;-85
2022/07/22 11:58:56;;;;;;;8.98;7.80;;;31.30;15.10;;;;;;5028758;28;20214;-87
2022/07/22 12:01:26;;;;;;;10.20;7.28;;;31.40;15.80;;;;;;5024892;28;20205;-89
2022/07/22 12:03:54;;;;;;;9.63;7.47;;;31.60;14.50;;;;;;5023918;28;20206;-86
2022/07/22 12:06:23;;;;;;;11.45;7.15;;;31.70;15.40;;;;;;5022661;28;20556;-86
2022/07/22 12:08:53;;;;;;;8.77;7.53;;;31.60;13.80;;;;;;5023680;28;20210;-81
2022/07/22 12:11:22;;;;;;;12.27;7.40;;;31.50;18.20;;;;;;5026508;28;20685;-81
2022/07/22 12:13:52;;;;;;;8.23;7.43;;;31.40;14.80;;;;;;5029534;28;20671;-80
2022/07/22 12:16:22;;;;;;;9.30;7.60;;;31.40;15.30;;;;;;5021237;28;20202;-81
2022/07/22 12:18:55;;;;;;;8.27;7.45;;;31.40;15.70;;;;;;5024036;28;20686;-82
2022/07/22 12:21:23;;;;;;;7.85;7.10;;;31.30;13.90;;;;;;5023711;28;20199;-82
2022/07/22 12:24:03;;;;;;;7.68;6.97;;;31.30;14.20;;;;;;5018653;28;20285;-80
2022/07/22 12:26:45;;;;;;;10.05;7.80;;;31.30;15.10;;;;;;5024642;28;20202;-82
2022/07/22 12:29:21;;;;;;;14.13;7.32;;;31.30;14.30;;;;;;5020385;28;20216;-81
2022/07/22 12:31:49;;;;;;;7.40;6.80;;;31.40;15.10;;;;;;5024921;28;20808;-81
2022/07/22 12:34:48;;;;;;;7.57;6.80;;;31.40;14.70;;;;;;5026053;28;20198;-81
2022/07/22 12:37:17;;;;;;;7.82;7.03;;;31.50;14.50;;;;;;5026596;28;20631;-83
2022/07/22 12:39:59;;;;;;;10.52;7.55;;;31.40;15.60;;;;;;5022158;28;20233;-81
2022/07/22 12:42:27;;;;;;;14.95;7.53;;;31.20;14.80;;;;;;5024949;28;20186;-82
2022/07/22 12:44:59;;;;;;;8.38;7.53;;;31.10;14.70;;;;;;5025958;28;20199;-81
2022/07/22 12:47:44;;;;;;;8.00;7.20;;;31.10;15.10;;;;;;5022822;28;20190;-79
2022/07/22 12:50:25;;;;;;;8.57;7.40;;;31.10;15.40;;;;;;5027219;28;20216;-81
2022/07/22 12:52:53;;;;;;;8.57;7.40;;;31.30;15.10;;;;;;5022339;28;20206;-81
2022/07/22 12:55:37;;;;;;;7.97;7.15;;;31.40;15.10;;;;;;5019472;28;20675;-80
2022/07/22 12:58:29;;;;;;;9.02;8.13;;;31.50;15.20;;;;;;5023797;28;20194;-80
2022/07/22 13:01:01;;;;;;;8.23;7.40;;;31.40;15.40;;;;;;5027061;28;20202;-89
2022/07/22 13:03:35;;;;;;;9.85;7.30;;;31.20;15.20;;;;;;5024910;28;20249;-82
2022/07/22 13:06:19;;;;;;;10.32;8.02;;;31.10;17.40;;;;;;5025295;28;20194;-80
2022/07/22 13:08:46;;;;;;;10.98;7.10;;;31.20;16.70;;;;;;5021511;28;20221;-80
2022/07/22 13:11:39;;;;;;;8.38;7.00;;;31.30;15.40;;;;;;5018048;28;20199;-85
2022/07/22 13:14:28;;;;;;;8.00;7.28;;;31.40;16.10;;;;;;5027064;28;20694;-80
2022/07/22 13:16:55;;;;;;;10.40;7.70;;;31.40;15.50;;;;;;5023199;28;20201;-81
2022/07/22 13:20:04;;;;;;;9.15;7.55;;;31.50;16.10;;;;;;5029357;28;20212;-80
2022/07/22 13:22:36;;;;;;;7.93;7.22;;;31.50;15.30;;;;;;5022017;28;20223;-80
2022/07/22 13:25:11;;;;;;;8.85;8.00;;;31.30;15.80;;;;;;5025075;28;20657;-87
2022/07/22 13:27:41;;;;;;;8.77;7.65;;;31.10;15.60;;;;;;5021556;28;20202;-80
2022/07/22 13:30:22;;;;;;;10.65;7.72;;;31.10;16.30;;;;;;5022577;28;20271;-80
2022/07/22 13:32:52;;;;;;;11.07;8.18;;;31.10;16.90;;;;;;5024381;28;20575;-81
2022/07/22 13:35:34;;;;;;;8.35;7.60;;;31.00;17.20;;;;;;5019775;28;20194;-80
2022/07/22 13:38:23;;;;;;;9.20;7.95;;;31.20;16.60;;;;;;5029227;28;20202;-84
2022/07/22 13:41:22;;;;;;;8.50;7.70;;;31.20;15.70;;;;;;5020986;28;20668;-80
2022/07/22 13:43:50;;;;;;;10.85;7.65;;;31.10;16.40;;;;;;5022948;28;20197;-80
2022/07/22 13:46:22;;;;;;;7.88;7.28;;;31.10;16.80;;;;;;5020419;28;20210;-80
2022/07/22 13:49:22;;;;;;;11.32;7.63;;;31.00;17.10;;;;;;5021724;28;20277;-81
2022/07/22 13:52:22;;;;;;;8.13;7.32;;;31.00;16.40;;;;;;5030055;28;20194;-79
2022/07/22 13:54:54;;;;;;;8.40;7.50;;;30.80;17.00;;;;;;5026050;28;20197;-84
2022/07/22 13:57:21;;;;;;;9.27;7.60;;;31.00;17.10;;;;;;5037265;28;20341;-82